createdAt,value
2022-09-15T00:01:13.457Z,99904.22
2022-09-15T00:03:41.202Z,99907.94
2022-09-15T00:06:09.589Z,99912.34
2022-09-15T00:08:37.621Z,99897.78
2022-09-15T00:11:10.083Z,99905.59
2022-09-15T00:13:39.471Z,99908.47
2022-09-15T00:16:07.845Z,99910.19
2022-09-15T00:18:38.744Z,99920.84
2022-09-15T00:21:11.715Z,99922.22
2022-09-15T00:23:39.297Z,99918.47
2022-09-15T00:26:12.630Z,99924.75
2022-09-15T00:28:40.076Z,99926.97
2022-09-15T00:31:10.457Z,99929.34
2022-09-15T00:33:38.044Z,99935.78
2022-09-15T00:36:09.398Z,99917.31
2022-09-15T00:38:37.471Z,99924.44
2022-09-15T00:41:06.109Z,99918.69
2022-09-15T00:43:54.830Z,99926.63
2022-09-15T00:46:32.270Z,99925.47
2022-09-15T00:49:06.524Z,99922.56
2022-09-15T00:51:51.865Z,99934.78
2022-09-15T00:54:23.003Z,99939.06
2022-09-15T00:56:51.984Z,99938.06
2022-09-15T00:59:23.237Z,99926.47
2022-09-15T01:01:57.482Z,99922.91
2022-09-15T01:04:24.907Z,99920.53
2022-09-15T01:06:57.231Z,99919.84
2022-09-15T01:09:31.526Z,99906.47
2022-09-15T01:11:59.716Z,99918.50
2022-09-15T01:14:27.069Z,99914.94
2022-09-15T01:17:14.177Z,99910.16
2022-09-15T01:20:07.863Z,99913.75
2022-09-15T01:22:56.888Z,99912.56
2022-09-15T01:25:59.736Z,99894.41
2022-09-15T01:28:52.740Z,99882.69
2022-09-15T01:31:30.232Z,99878.13
2022-09-15T01:34:09.561Z,99877.97
2022-09-15T01:36:51.221Z,99882.69
2022-09-15T01:39:25.366Z,99881.84
2022-09-15T01:41:56.053Z,99879.31
2022-09-15T01:44:28.630Z,99877.59
2022-09-15T01:46:58.697Z,99877.59
2022-09-15T01:49:31.306Z,99877.44
2022-09-15T01:51:58.571Z,99872.69
2022-09-15T01:54:33.251Z,99877.09
2022-09-15T01:57:02.085Z,99874.38
2022-09-15T01:59:29.428Z,99868.09
2022-09-15T02:02:04.056Z,99871.50
2022-09-15T02:04:51.040Z,99873.06
2022-09-15T02:07:21.087Z,99865.78
2022-09-15T02:09:52.275Z,99868.31
2022-09-15T02:12:34.995Z,99865.41
2022-09-15T02:15:08.766Z,99859.47
2022-09-15T02:17:59.231Z,99860.16
2022-09-15T02:20:33.165Z,99866.44
2022-09-15T02:23:08.569Z,99855.59
2022-09-15T02:25:44.373Z,99857.28
2022-09-15T02:28:14.033Z,99856.25
2022-09-15T02:30:43.378Z,99857.44
2022-09-15T02:33:14.478Z,99846.59
2022-09-15T02:35:42.344Z,99861.19
2022-09-15T02:38:10.937Z,99857.63
2022-09-15T02:40:43.333Z,99850.50
2022-09-15T02:43:13.890Z,99858.81
2022-09-15T02:45:41.348Z,99852.69
2022-09-15T02:48:09.749Z,99855.41
2022-09-15T02:50:38.057Z,99854.56
2022-09-15T02:53:05.534Z,99851.00
2022-09-15T02:55:33.887Z,99851.69
2022-09-15T02:58:01.170Z,99863.22
2022-09-15T03:00:28.771Z,99851.31
2022-09-15T03:02:56.235Z,99857.28
2022-09-15T03:05:27.191Z,99857.97
2022-09-15T03:07:55.534Z,99845.88
2022-09-15T03:10:24.764Z,99843.88
2022-09-15T03:12:53.892Z,99852.53
2022-09-15T03:15:24.132Z,99859.44
2022-09-15T03:17:52.802Z,99850.31
2022-09-15T03:20:27.381Z,99852.66
2022-09-15T03:22:55.104Z,99856.06
2022-09-15T03:25:22.743Z,99856.56
2022-09-15T03:27:49.951Z,99850.25
2022-09-15T03:30:17.216Z,99851.13
2022-09-15T03:32:44.852Z,99840.28
2022-09-15T03:35:12.112Z,99846.56
2022-09-15T03:37:39.534Z,99845.03
2022-09-15T03:40:07.346Z,99850.63
2022-09-15T03:42:34.976Z,99846.19
2022-09-15T03:45:02.363Z,99860.81
2022-09-15T03:47:29.661Z,99853.34
2022-09-15T03:49:57.095Z,99871.84
2022-09-15T03:52:24.870Z,99869.63
2022-09-15T03:54:52.356Z,99868.41
2022-09-15T03:57:19.663Z,99865.38
2022-09-15T03:59:46.934Z,99861.47
2022-09-15T04:02:14.822Z,99847.00
2022-09-15T04:04:42.452Z,99847.69
2022-09-15T04:07:09.942Z,99845.81
2022-09-15T04:09:37.447Z,99840.88
2022-09-15T04:12:05.721Z,99837.31
2022-09-15T04:14:33.477Z,99835.06
2022-09-15T04:17:00.686Z,99837.16
2022-09-15T04:19:29.525Z,99830.53
2022-09-15T04:21:56.847Z,99842.91
2022-09-15T04:24:25.097Z,99829.94
2022-09-15T04:26:53.021Z,99845.03
2022-09-15T04:29:20.254Z,99834.72
2022-09-15T04:31:48.246Z,99840.31
2022-09-15T04:34:15.619Z,99840.66
2022-09-15T04:36:44.143Z,99844.50
2022-09-15T04:39:11.405Z,99841.91
2022-09-15T04:41:38.792Z,99834.16
2022-09-15T04:44:06.042Z,99825.63
2022-09-15T04:46:33.462Z,99824.56
2022-09-15T04:49:00.848Z,99824.13
2022-09-15T04:51:28.150Z,99820.00
2022-09-15T04:53:55.614Z,99813.22
2022-09-15T04:56:24.491Z,99829.19
2022-09-15T04:58:54.039Z,99815.59
2022-09-15T05:01:24.106Z,99822.25
2022-09-15T05:03:51.991Z,99824.78
2022-09-15T05:06:22.726Z,99809.94
2022-09-15T05:08:51.877Z,99815.47
2022-09-15T05:11:20.381Z,99816.81
2022-09-15T05:13:50.996Z,99808.38
2022-09-15T05:16:21.746Z,99806.38
2022-09-15T05:18:50.607Z,99816.19
2022-09-15T05:21:19.541Z,99823.34
2022-09-15T05:23:48.021Z,99817.41
2022-09-15T05:26:17.627Z,99817.91
2022-09-15T05:28:48.558Z,99805.63
2022-09-15T05:31:31.243Z,99798.41
2022-09-15T05:34:02.009Z,99798.31
2022-09-15T05:36:30.210Z,99785.50
2022-09-15T05:38:58.215Z,99775.41
2022-09-15T05:41:26.855Z,99787.97
2022-09-15T05:43:55.544Z,99783.28
2022-09-15T05:46:23.173Z,99790.22
2022-09-15T05:48:50.534Z,99793.41
2022-09-15T05:51:20.843Z,99801.59
2022-09-15T05:53:48.694Z,99809.47
2022-09-15T05:56:18.573Z,99803.56
2022-09-15T05:58:53.169Z,99811.19
2022-09-15T06:01:23.043Z,99817.53
2022-09-15T06:03:50.841Z,99814.78
2022-09-15T06:06:18.493Z,99808.91
2022-09-15T06:08:55.420Z,99807.63
2022-09-15T06:11:27.499Z,99805.25
2022-09-15T06:13:55.205Z,99797.19
2022-09-15T06:16:24.518Z,99798.66
2022-09-15T06:18:53.272Z,99806.31
2022-09-15T06:21:23.243Z,99787.81
2022-09-15T06:24:04.579Z,99800.97
2022-09-15T06:26:32.085Z,99786.28
2022-09-15T06:29:03.912Z,99781.31
2022-09-15T06:31:33.301Z,99780.19
2022-09-15T06:34:01.240Z,99776.75
2022-09-15T06:36:33.065Z,99776.91
2022-09-15T06:39:02.961Z,99781.72
2022-09-15T06:41:47.463Z,99786.66
2022-09-15T06:44:21.516Z,99788.06
2022-09-15T06:46:50.151Z,99782.66
2022-09-15T06:49:17.812Z,99789.09
2022-09-15T06:51:45.667Z,99794.44
2022-09-15T06:54:14.718Z,99803.47
2022-09-15T06:56:43.116Z,99801.69
2022-09-15T06:59:15.787Z,99804.41
2022-09-15T07:01:43.761Z,99804.00
2022-09-15T07:04:13.073Z,99800.41
2022-09-15T07:06:41.979Z,99793.03
2022-09-15T07:09:11.303Z,99808.38
2022-09-15T07:11:39.897Z,99812.19
2022-09-15T07:14:07.341Z,99813.94
2022-09-15T07:16:36.450Z,99814.47
2022-09-15T07:19:05.862Z,99812.03
2022-09-15T07:21:34.873Z,99800.56
2022-09-15T07:24:09.745Z,99803.09
2022-09-15T07:26:38.000Z,99802.09
2022-09-15T07:29:06.941Z,99797.34
2022-09-15T07:31:36.023Z,99791.56
2022-09-15T07:34:03.664Z,99788.00
2022-09-15T07:36:32.028Z,99777.22
2022-09-15T07:38:59.361Z,99775.97
2022-09-15T07:41:35.328Z,99770.28
2022-09-15T07:44:02.928Z,99771.09
2022-09-15T07:46:32.705Z,99775.78
2022-09-15T07:49:03.546Z,99767.13
2022-09-15T07:51:46.424Z,99753.31
2022-09-15T07:54:23.169Z,99760.09
2022-09-15T07:56:53.693Z,99760.53
2022-09-15T07:59:23.684Z,99761.88
2022-09-15T08:02:03.658Z,99768.81
2022-09-15T08:04:36.505Z,99764.28
2022-09-15T08:07:04.923Z,99763.56
2022-09-15T08:09:36.294Z,99760.78
2022-09-15T08:12:05.835Z,99751.66
2022-09-15T08:14:34.214Z,99757.66
2022-09-15T08:17:03.053Z,99748.09
2022-09-15T08:19:34.185Z,99747.59
2022-09-15T08:22:05.092Z,99740.66
2022-09-15T08:24:33.087Z,99738.25
2022-09-15T08:27:00.510Z,99740.28
2022-09-15T08:29:45.493Z,99729.22
2022-09-15T08:32:19.081Z,99724.06
2022-09-15T08:34:46.327Z,99724.81
2022-09-15T08:37:13.696Z,99715.22
2022-09-15T08:39:46.796Z,99711.88
2022-09-15T08:42:19.374Z,99707.28
2022-09-15T08:45:04.277Z,99701.25
2022-09-15T08:47:41.844Z,99691.47
2022-09-15T08:50:15.559Z,99689.06
2022-09-15T08:52:51.293Z,99681.06
2022-09-15T08:55:34.445Z,99676.06
2022-09-15T08:58:02.108Z,99671.59
2022-09-15T09:00:30.093Z,99675.75
2022-09-15T09:03:07.702Z,99666.66
2022-09-15T09:05:50.337Z,99659.97
2022-09-15T09:08:41.516Z,99654.84
2022-09-15T09:11:33.158Z,99645.03
2022-09-15T09:14:32.433Z,99647.25
2022-09-15T09:17:13.678Z,99643.63
2022-09-15T09:19:56.097Z,99645.72
2022-09-15T09:22:24.580Z,99645.72
2022-09-15T09:24:53.933Z,99638.03
2022-09-15T09:27:24.536Z,99642.13
2022-09-15T09:29:59.823Z,99630.31
2022-09-15T09:32:34.532Z,99631.66
2022-09-15T09:35:28.635Z,99632.44
2022-09-15T09:37:56.763Z,99633.44
2022-09-15T09:40:24.191Z,99624.72
2022-09-15T09:42:51.933Z,99624.97
2022-09-15T09:45:19.742Z,99634.50
2022-09-15T09:47:47.055Z,99622.78
2022-09-15T09:50:35.857Z,99626.38
2022-09-15T09:53:32.284Z,99619.94
2022-09-15T09:56:25.839Z,99634.34
2022-09-15T09:58:55.897Z,99625.59
2022-09-15T10:01:26.159Z,99635.16
2022-09-15T10:04:17.990Z,99631.19
2022-09-15T10:06:47.719Z,99629.50
2022-09-15T10:09:19.473Z,99623.28
2022-09-15T10:11:49.095Z,99641.06
2022-09-15T10:14:26.808Z,99631.56
2022-09-15T10:17:11.500Z,99630.44
2022-09-15T10:19:48.165Z,99631.31
2022-09-15T10:22:30.718Z,99632.69
2022-09-15T10:25:00.761Z,99639.09
2022-09-15T10:27:36.259Z,99631.75
2022-09-15T10:30:24.592Z,99632.31
2022-09-15T10:32:51.921Z,99634.50
2022-09-15T10:35:21.095Z,99634.75
2022-09-15T10:37:59.941Z,99640.09
2022-09-15T10:40:33.788Z,99632.75
2022-09-15T10:43:18.978Z,99640.41
2022-09-15T10:45:53.951Z,99645.75
2022-09-15T10:48:58.160Z,99645.78
2022-09-15T10:51:49.351Z,99651.28
2022-09-15T10:54:16.676Z,99644.06
2022-09-15T10:56:47.506Z,99636.28
2022-09-15T10:59:30.473Z,99637.34
2022-09-15T11:02:19.808Z,99635.91
2022-09-15T11:05:22.763Z,99638.31
2022-09-15T11:08:19.126Z,99642.56
2022-09-15T11:11:00.377Z,99636.69
2022-09-15T11:13:43.345Z,99621.78
2022-09-15T11:16:38.940Z,99619.28
2022-09-15T11:19:09.193Z,99615.75
2022-09-15T11:21:43.645Z,99603.97
2022-09-15T11:24:28.633Z,99606.91
2022-09-15T11:27:05.171Z,99601.44
2022-09-15T11:30:10.699Z,99602.28
2022-09-15T11:32:58.398Z,99589.69
2022-09-15T11:35:47.829Z,99599.75
2022-09-15T11:38:35.783Z,99583.28
2022-09-15T11:41:11.728Z,99579.91
2022-09-15T11:44:00.530Z,99572.06
2022-09-15T11:46:50.575Z,99569.25
2022-09-15T11:49:22.294Z,99555.44
2022-09-15T11:51:54.046Z,99547.47
2022-09-15T11:54:37.347Z,99537.38
2022-09-15T11:57:05.036Z,99537.00
2022-09-15T11:59:58.050Z,99537.66
2022-09-15T12:02:53.445Z,99535.13
2022-09-15T12:05:28.601Z,99525.00
2022-09-15T12:08:10.350Z,99521.00
2022-09-15T12:10:40.491Z,99523.53
2022-09-15T12:13:17.250Z,99519.13
2022-09-15T12:15:50.121Z,99515.34
2022-09-15T12:18:44.945Z,99505.94
2022-09-15T12:21:36.205Z,99499.19
2022-09-15T12:24:13.451Z,99495.41
2022-09-15T12:26:43.375Z,99489.94
2022-09-15T12:29:26.126Z,99492.25
2022-09-15T12:32:29.123Z,99485.72
2022-09-15T12:35:02.777Z,99494.97
2022-09-15T12:37:46.679Z,99499.19
2022-09-15T12:40:27.896Z,99496.25
2022-09-15T12:42:58.296Z,99491.44
2022-09-15T12:45:31.046Z,99499.19
2022-09-15T12:48:06.221Z,99484.88
2022-09-15T12:50:38.117Z,99488.25
2022-09-15T12:53:14.533Z,99489.09
2022-09-15T12:55:55.497Z,99471.44
2022-09-15T12:58:49.643Z,99464.50
2022-09-15T13:01:23.441Z,99467.63
2022-09-15T13:03:55.280Z,99458.16
2022-09-15T13:06:37.836Z,99457.72
2022-09-15T13:09:06.031Z,99451.81
2022-09-15T13:11:34.782Z,99449.84
2022-09-15T13:14:08.157Z,99452.81
2022-09-15T13:16:41.246Z,99452.97
2022-09-15T13:19:21.481Z,99440.47
2022-09-15T13:22:09.595Z,99452.44
2022-09-15T13:25:00.763Z,99453.91
2022-09-15T13:27:40.456Z,99448.41
2022-09-15T13:30:26.258Z,99456.84
2022-09-15T13:40:04.513Z,99452.25
2022-09-15T13:42:40.283Z,99448.28
2022-09-15T13:45:40.624Z,99448.38
2022-09-15T13:48:28.345Z,99451.06
2022-09-15T13:51:06.100Z,99446.63
2022-09-15T13:53:38.009Z,99443.06
2022-09-15T13:56:08.943Z,99442.63
2022-09-15T13:59:01.747Z,99444.53
2022-09-15T14:01:29.579Z,99443.28
2022-09-15T14:04:00.891Z,99436.75
2022-09-15T14:06:34.839Z,99442.84
2022-09-15T14:09:28.804Z,99443.88
2022-09-15T14:11:59.558Z,99443.50
2022-09-15T14:14:37.555Z,99449.41
2022-09-15T14:17:05.413Z,99442.69
2022-09-15T14:19:38.997Z,99433.63
2022-09-15T14:22:20.505Z,99439.09
2022-09-15T14:24:48.134Z,99431.75
2022-09-15T14:27:20.756Z,99435.56
2022-09-15T14:29:50.455Z,99434.91
2022-09-15T14:32:18.333Z,99435.56
2022-09-15T14:34:45.780Z,99424.84
2022-09-15T14:37:19.955Z,99426.75
2022-09-15T14:39:56.628Z,99425.09
2022-09-15T14:42:31.158Z,99421.97
2022-09-15T14:48:18.181Z,99427.63
2022-09-15T14:50:48.302Z,99426.59
2022-09-15T14:53:22.175Z,99426.00
2022-09-15T14:56:05.655Z,99427.47
2022-09-15T14:58:43.347Z,99422.63
2022-09-15T15:01:15.848Z,99424.75
2022-09-15T15:04:10.021Z,99429.16
2022-09-15T15:07:16.078Z,99426.66
2022-09-15T15:09:48.979Z,99425.38
2022-09-15T15:12:24.852Z,99423.25
2022-09-15T15:14:53.692Z,99424.28
2022-09-15T15:17:44.272Z,99420.28
2022-09-15T15:20:11.681Z,99415.47
2022-09-15T15:22:41.454Z,99419.66
2022-09-15T15:25:32.275Z,99424.09
2022-09-15T15:28:00.434Z,99421.78
2022-09-15T15:30:30.921Z,99417.59
2022-09-15T15:33:06.727Z,99422.22
2022-09-15T15:35:36.420Z,99423.25
2022-09-15T15:38:11.813Z,99419.06
2022-09-15T15:40:40.674Z,99421.78
2022-09-15T15:43:20.254Z,99422.81
2022-09-15T15:46:08.597Z,99416.50
2022-09-15T15:48:38.097Z,99420.53
2022-09-15T15:51:07.484Z,99419.88
2022-09-15T15:53:34.770Z,99418.19
2022-09-15T15:56:02.505Z,99432.47
2022-09-15T15:58:30.885Z,99424.28
2022-09-15T16:01:00.028Z,99430.81
2022-09-15T16:03:27.819Z,99436.25
2022-09-15T16:05:59.765Z,99428.50
2022-09-15T16:08:31.485Z,99437.72
2022-09-15T16:11:01.681Z,99436.47
2022-09-15T16:13:31.045Z,99443.19
2022-09-15T16:16:15.796Z,99431.19
2022-09-15T16:18:43.668Z,99435.19
2022-09-15T16:21:34.997Z,99442.09
2022-09-15T16:24:06.365Z,99425.94
2022-09-15T16:26:35.734Z,99434.34
2022-09-15T16:29:03.836Z,99435.59
2022-09-15T16:31:31.669Z,99431.78
2022-09-15T16:34:00.360Z,99433.25
2022-09-15T16:36:31.239Z,99423.16
2022-09-15T16:41:51.281Z,99427.09
2022-09-15T16:44:19.850Z,99437.16
2022-09-15T16:46:47.482Z,99440.09
2022-09-15T16:49:15.390Z,99441.34
2022-09-15T16:51:44.611Z,99441.56
2022-09-15T16:54:17.980Z,99448.06
2022-09-15T16:56:46.261Z,99443.84
2022-09-15T16:59:13.807Z,99443.00
2022-09-15T17:01:41.532Z,99433.75
2022-09-15T17:04:13.230Z,99432.88
2022-09-15T17:06:42.673Z,99439.16
2022-09-15T17:09:10.235Z,99451.53
2022-09-15T17:11:38.158Z,99464.53
2022-09-15T17:14:05.638Z,99454.66
2022-09-15T17:16:33.019Z,99462.00
2022-09-15T17:19:02.744Z,99459.47
2022-09-15T17:21:30.433Z,99467.66
2022-09-15T17:23:59.528Z,99469.75
2022-09-15T17:26:31.283Z,99468.91
2022-09-15T17:29:04.244Z,99473.72
2022-09-15T17:31:32.505Z,99475.59
2022-09-15T17:34:00.995Z,99484.44
2022-09-15T17:36:28.767Z,99491.78
2022-09-15T17:38:59.788Z,99487.16
2022-09-15T17:41:27.468Z,99490.72
2022-09-15T17:43:54.868Z,99491.56
2022-09-15T17:46:22.303Z,99488.19
2022-09-15T17:48:49.635Z,99492.63
2022-09-15T17:51:17.585Z,99484.84
2022-09-15T17:53:47.810Z,99481.66
2022-09-15T17:56:15.234Z,99477.47
2022-09-15T17:58:43.331Z,99477.03
2022-09-15T18:01:14.175Z,99478.25
2022-09-15T18:03:43.420Z,99466.28
2022-09-15T18:06:10.958Z,99474.00
2022-09-15T18:08:38.532Z,99473.34
2022-09-15T18:11:06.782Z,99468.09
2022-09-15T18:13:34.878Z,99467.25
2022-09-15T18:16:07.449Z,99469.16
2022-09-15T18:18:35.989Z,99461.38
2022-09-15T18:21:07.841Z,99469.09
2022-09-15T18:23:37.522Z,99467.41
2022-09-15T18:26:05.910Z,99462.31
2022-09-15T18:28:33.424Z,99462.91
2022-09-15T18:31:00.742Z,99460.41
2022-09-15T18:33:28.025Z,99457.00
2022-09-15T18:35:56.795Z,99465.00
2022-09-15T18:38:27.797Z,99468.97
2022-09-15T18:40:57.092Z,99458.06
2022-09-15T18:43:26.877Z,99466.44
2022-09-15T18:46:09.717Z,99461.19
2022-09-15T18:48:37.734Z,99467.28
2022-09-15T18:51:16.297Z,99461.63
2022-09-15T18:53:54.365Z,99456.19
2022-09-15T18:56:23.286Z,99461.00
2022-09-15T18:58:53.884Z,99470.25
2022-09-15T19:01:24.457Z,99483.69
2022-09-15T19:03:54.751Z,99475.31
2022-09-15T19:06:22.645Z,99481.63
2022-09-15T19:08:50.099Z,99481.41
2022-09-15T19:11:17.623Z,99466.94
2022-09-15T19:13:45.180Z,99469.03
2022-09-15T19:16:15.469Z,99470.50
2022-09-15T19:18:44.993Z,99472.22
2022-09-15T19:21:12.731Z,99472.03
2022-09-15T19:23:40.293Z,99464.88
2022-09-15T19:26:12.075Z,99461.97
2022-09-15T19:28:40.477Z,99456.50
2022-09-15T19:31:08.915Z,99462.81
2022-09-15T19:33:37.999Z,99451.22
2022-09-15T19:36:26.857Z,99446.63
2022-09-15T19:38:55.036Z,99445.78
2022-09-15T19:41:22.315Z,99436.59
2022-09-15T19:43:49.978Z,99429.44
2022-09-15T19:46:24.017Z,99432.16
2022-09-15T19:48:52.553Z,99431.69
2022-09-15T19:51:20.889Z,99423.53
2022-09-15T19:53:48.213Z,99432.75
2022-09-15T19:56:22.348Z,99441.56
2022-09-15T19:58:50.539Z,99446.16
2022-09-15T20:01:18.361Z,99435.25
2022-09-15T20:03:45.741Z,99445.13
2022-09-15T20:06:13.016Z,99444.28
2022-09-15T20:08:41.949Z,99438.84
2022-09-15T20:11:09.628Z,99429.16
2022-09-15T20:13:41.491Z,99433.78
2022-09-15T20:16:10.845Z,99427.94
2022-09-15T20:18:41.242Z,99425.19
2022-09-15T20:21:12.356Z,99430.44
2022-09-15T20:23:49.830Z,99427.72
2022-09-15T20:26:18.361Z,99421.84
2022-09-15T20:28:46.271Z,99418.69
2022-09-15T20:31:19.588Z,99420.59
2022-09-15T20:39:41.173Z,99401.72
2022-09-15T20:42:08.872Z,99407.78
2022-09-15T20:44:36.930Z,99411.56
2022-09-15T20:47:04.675Z,99403.78
2022-09-15T20:49:32.202Z,99408.41
2022-09-15T20:51:59.557Z,99407.34
2022-09-15T20:54:26.913Z,99394.75
2022-09-15T20:56:54.406Z,99392.03
2022-09-15T20:59:21.679Z,99386.41
2022-09-15T21:01:48.974Z,99396.25
2022-09-15T21:04:16.881Z,99387.25
2022-09-15T21:06:44.328Z,99388.09
2022-09-15T21:09:11.873Z,99383.47
2022-09-15T21:11:39.906Z,99388.09
2022-09-15T21:14:07.670Z,99376.13
2022-09-15T21:16:35.792Z,99389.53
2022-09-15T21:19:03.569Z,99389.53
2022-09-15T21:21:32.239Z,99390.41
2022-09-15T21:24:07.405Z,99389.53
2022-09-15T21:26:57.248Z,99386.63
2022-09-15T21:29:28.254Z,99387.88
2022-09-15T21:32:00.274Z,99385.16
2022-09-15T21:34:31.812Z,99382.25
2022-09-15T21:36:59.497Z,99385.63
2022-09-15T21:39:31.876Z,99387.69
2022-09-15T21:41:59.401Z,99381.38
2022-09-15T21:44:26.688Z,99377.81
2022-09-15T21:46:54.823Z,99369.00
2022-09-15T21:49:22.108Z,99367.31
2022-09-15T21:51:49.677Z,99365.44
2022-09-15T21:54:16.937Z,99361.22
2022-09-15T21:56:45.251Z,99363.09
2022-09-15T21:59:12.569Z,99362.88
2022-09-15T22:01:41.588Z,99366.81
2022-09-15T22:04:10.452Z,99371.00
2022-09-15T22:06:40.752Z,99378.09
2022-09-15T22:09:11.154Z,99377.44
2022-09-15T22:11:39.437Z,99371.53
2022-09-15T22:14:09.788Z,99383.47
2022-09-15T22:16:40.967Z,99376.16
2022-09-15T22:19:11.188Z,99379.94
2022-09-15T22:21:41.888Z,99380.31
2022-09-15T22:24:11.725Z,99385.34
2022-09-15T22:26:39.985Z,99392.41
2022-09-15T22:29:07.249Z,99394.06
2022-09-15T22:31:35.903Z,99391.94
2022-09-15T22:34:05.785Z,99396.91
2022-09-15T22:36:33.715Z,99399.63
2022-09-15T22:39:05.082Z,99398.34
2022-09-15T22:41:35.912Z,99402.97
2022-09-15T22:44:04.284Z,99404.19
2022-09-15T22:46:32.405Z,99409.84
2022-09-15T22:48:59.796Z,99406.44
2022-09-15T22:51:27.119Z,99411.91
2022-09-15T22:53:55.516Z,99407.50
2022-09-15T22:56:23.320Z,99402.72
2022-09-15T22:58:50.738Z,99404.38
2022-09-15T23:01:23.699Z,99411.50
2022-09-15T23:04:02.012Z,99408.78
2022-09-15T23:06:32.099Z,99409.63
2022-09-15T23:09:04.606Z,99411.72
2022-09-15T23:11:33.282Z,99412.75
2022-09-15T23:14:01.489Z,99409.38
2022-09-15T23:16:30.831Z,99414.00
2022-09-15T23:18:59.465Z,99418.59
2022-09-15T23:21:28.061Z,99420.28
2022-09-15T23:23:56.113Z,99416.91
2022-09-15T23:26:24.442Z,99414.56
2022-09-15T23:28:51.784Z,99417.06
2022-09-15T23:31:19.546Z,99415.53
2022-09-15T23:33:47.788Z,99415.94
2022-09-15T23:36:19.837Z,99416.50
2022-09-15T23:38:48.129Z,99419.41
2022-09-15T23:41:16.330Z,99418.28
2022-09-15T23:43:43.661Z,99422.06
2022-09-15T23:46:11.619Z,99412.41
2022-09-15T23:48:39.669Z,99422.63
2022-09-15T23:51:07.050Z,99419.28
2022-09-15T23:53:35.255Z,99416.09
2022-09-15T23:56:03.020Z,99415.63
2022-09-15T23:58:31.304Z,99410.41
